sensor_id;sensor_type;location;lat;lon;timestamp;pressure;altitude;pressure_sealevel;temperature;humidity
6514;BME280;3290;47.716;9.070;2023-03-24T00:00:18;96300.53;;;13.92;95.75
6514;BME280;3290;47.716;9.070;2023-03-24T00:02:45;96288.59;;;14.05;95.21
6514;BME280;3290;47.716;9.070;2023-03-24T00:05:19;96288.59;;;14.05;94.70
6514;BME280;3290;47.716;9.070;2023-03-24T00:07:46;96305.28;;;14.16;94.47
6514;BME280;3290;47.716;9.070;2023-03-24T00:10:17;96297.38;;;14.21;94.87
6514;BME280;3290;47.716;9.070;2023-03-24T00:12:45;96297.97;;;14.28;94.92
6514;BME280;3290;47.716;9.070;2023-03-24T00:15:14;96304.69;;;14.09;94.57
6514;BME280;3290;47.716;9.070;2023-03-24T00:17:40;96315.28;;;13.93;96.80
6514;BME280;3290;47.716;9.070;2023-03-24T00:20:09;96321.56;;;13.87;97.37
6514;BME280;3290;47.716;9.070;2023-03-24T00:22:40;96310.69;;;13.78;97.52
6514;BME280;3290;47.716;9.070;2023-03-24T00:25:07;96305.03;;;13.96;97.80
6514;BME280;3290;47.716;9.070;2023-03-24T00:27:32;96298.34;;;14.10;98.63
6514;BME280;3290;47.716;9.070;2023-03-24T00:30:06;96301.88;;;13.94;100.00
6514;BME280;3290;47.716;9.070;2023-03-24T00:32:32;96281.88;;;13.98;99.61
6514;BME280;3290;47.716;9.070;2023-03-24T00:34:57;96278.75;;;14.01;98.94
6514;BME280;3290;47.716;9.070;2023-03-24T00:37:24;96288.59;;;14.05;99.37
6514;BME280;3290;47.716;9.070;2023-03-24T00:39:50;96294.78;;;13.95;99.51
6514;BME280;3290;47.716;9.070;2023-03-24T00:42:15;96295.81;;;13.94;100.00
6514;BME280;3290;47.716;9.070;2023-03-24T00:44:41;96295.72;;;13.84;99.64
6514;BME280;3290;47.716;9.070;2023-03-24T00:47:09;96294.03;;;13.73;100.00
6514;BME280;3290;47.716;9.070;2023-03-24T00:49:35;96241.31;;;13.16;100.00
6514;BME280;3290;47.716;9.070;2023-03-24T00:52:15;96219.09;;;13.28;100.00
6514;BME280;3290;47.716;9.070;2023-03-24T00:54:45;96198.50;;;13.46;100.00
6514;BME280;3290;47.716;9.070;2023-03-24T00:57:12;96206.59;;;13.40;100.00
6514;BME280;3290;47.716;9.070;2023-03-24T00:59:39;96192.94;;;13.43;100.00
6514;BME280;3290;47.716;9.070;2023-03-24T01:02:15;96201.19;;;13.51;100.00
6514;BME280;3290;47.716;9.070;2023-03-24T01:04:40;96197.38;;;13.37;100.00
6514;BME280;3290;47.716;9.070;2023-03-24T01:07:12;96193.47;;;13.45;100.00
6514;BME280;3290;47.716;9.070;2023-03-24T01:09:37;96188.28;;;13.23;100.00
6514;BME280;3290;47.716;9.070;2023-03-24T01:12:03;96197.66;;;13.15;100.00
6514;BME280;3290;47.716;9.070;2023-03-24T01:14:31;96199.66;;;13.29;100.00
6514;BME280;3290;47.716;9.070;2023-03-24T01:16:57;96189.97;;;13.34;100.00
6514;BME280;3290;47.716;9.070;2023-03-24T01:19:24;96191.25;;;13.06;100.00
6514;BME280;3290;47.716;9.070;2023-03-24T01:21:50;96183.91;;;13.08;100.00
6514;BME280;3290;47.716;9.070;2023-03-24T01:24:18;96178.75;;;12.91;100.00
6514;BME280;3290;47.716;9.070;2023-03-24T01:26:44;96177.22;;;12.79;100.00
6514;BME280;3290;47.716;9.070;2023-03-24T01:29:10;96180.84;;;12.73;100.00
6514;BME280;3290;47.716;9.070;2023-03-24T01:31:35;96182.44;;;12.74;100.00
6514;BME280;3290;47.716;9.070;2023-03-24T01:34:02;96185.63;;;12.76;100.00
6514;BME280;3290;47.716;9.070;2023-03-24T01:36:28;96182.44;;;12.74;100.00
6514;BME280;3290;47.716;9.070;2023-03-24T01:38:53;96182.78;;;12.61;100.00
6514;BME280;3290;47.716;9.070;2023-03-24T01:41:19;96188.34;;;12.65;100.00
6514;BME280;3290;47.716;9.070;2023-03-24T01:43:45;96186.25;;;12.83;100.00
6514;BME280;3290;47.716;9.070;2023-03-24T01:46:18;96185.94;;;12.79;100.00
6514;BME280;3290;47.716;9.070;2023-03-24T01:48:45;96194.22;;;12.72;100.00
6514;BME280;3290;47.716;9.070;2023-03-24T01:51:15;96183.53;;;12.78;100.00
6514;BME280;3290;47.716;9.070;2023-03-24T01:53:46;96194.06;;;12.78;100.00
6514;BME280;3290;47.716;9.070;2023-03-24T01:56:14;96185.16;;;13.00;100.00
6514;BME280;3290;47.716;9.070;2023-03-24T01:58:44;96188.69;;;13.11;100.00
6514;BME280;3290;47.716;9.070;2023-03-24T02:01:10;96178.44;;;13.40;100.00
6514;BME280;3290;47.716;9.070;2023-03-24T02:03:36;96172.78;;;13.27;100.00
6514;BME280;3290;47.716;9.070;2023-03-24T02:06:05;96170.94;;;13.27;100.00
6514;BME280;3290;47.716;9.070;2023-03-24T02:08:54;96177.16;;;13.17;100.00
6514;BME280;3290;47.716;9.070;2023-03-24T02:11:23;96195.69;;;13.05;100.00
6514;BME280;3290;47.716;9.070;2023-03-24T02:13:49;96196.84;;;13.40;100.00
6514;BME280;3290;47.716;9.070;2023-03-24T02:27:08;96200.22;;;13.62;100.00
6514;BME280;3290;47.716;9.070;2023-03-24T02:44:10;96198.13;;;13.64;100.00
6514;BME280;3290;47.716;9.070;2023-03-24T02:46:55;96195.25;;;13.65;100.00
6514;BME280;3290;47.716;9.070;2023-03-24T02:55:01;96207.03;;;13.58;100.00
6514;BME280;3290;47.716;9.070;2023-03-24T03:02:39;96208.84;;;13.58;100.00
6514;BME280;3290;47.716;9.070;2023-03-24T03:05:21;96207.81;;;13.59;100.00
6514;BME280;3290;47.716;9.070;2023-03-24T03:07:49;96203.34;;;13.59;100.00
6514;BME280;3290;47.716;9.070;2023-03-24T03:10:37;96205.84;;;13.70;100.00
6514;BME280;3290;47.716;9.070;2023-03-24T03:13:09;96204.59;;;13.52;100.00
6514;BME280;3290;47.716;9.070;2023-03-24T03:15:41;96198.69;;;13.40;100.00
6514;BME280;3290;47.716;9.070;2023-03-24T03:18:16;96194.66;;;13.06;100.00
6514;BME280;3290;47.716;9.070;2023-03-24T03:20:49;96177.63;;;12.87;100.00
6514;BME280;3290;47.716;9.070;2023-03-24T03:23:38;96173.47;;;12.91;100.00
6514;BME280;3290;47.716;9.070;2023-03-24T03:26:08;96159.59;;;12.96;100.00
6514;BME280;3290;47.716;9.070;2023-03-24T03:28:40;96150.41;;;12.77;100.00
6514;BME280;3290;47.716;9.070;2023-03-24T03:31:16;96150.91;;;12.74;100.00
6514;BME280;3290;47.716;9.070;2023-03-24T03:33:51;96156.28;;;12.84;100.00
6514;BME280;3290;47.716;9.070;2023-03-24T03:36:28;96157.88;;;12.85;100.00
6514;BME280;3290;47.716;9.070;2023-03-24T03:41:28;96108.03;;;12.74;100.00
6514;BME280;3290;47.716;9.070;2023-03-24T03:43:53;96100.16;;;12.74;100.00
6514;BME280;3290;47.716;9.070;2023-03-24T03:46:19;96087.09;;;12.57;100.00
6514;BME280;3290;47.716;9.070;2023-03-24T03:48:45;96085.47;;;12.99;100.00
6514;BME280;3290;47.716;9.070;2023-03-24T03:51:12;96073.84;;;12.95;100.00
6514;BME280;3290;47.716;9.070;2023-03-24T03:53:47;96077.66;;;13.09;100.00
6514;BME280;3290;47.716;9.070;2023-03-24T03:56:18;96099.91;;;13.27;100.00
6514;BME280;3290;47.716;9.070;2023-03-24T03:58:45;96096.94;;;13.19;100.00
6514;BME280;3290;47.716;9.070;2023-03-24T04:01:23;96075.72;;;13.25;100.00
6514;BME280;3290;47.716;9.070;2023-03-24T04:10:09;96072.97;;;13.11;100.00
6514;BME280;3290;47.716;9.070;2023-03-24T04:13:03;96070.94;;;12.91;100.00
6514;BME280;3290;47.716;9.070;2023-03-24T04:15:38;96090.72;;;12.99;100.00
6514;BME280;3290;47.716;9.070;2023-03-24T04:18:27;96083.78;;;13.14;100.00
6514;BME280;3290;47.716;9.070;2023-03-24T04:23:36;96090.69;;;12.94;100.00
6514;BME280;3290;47.716;9.070;2023-03-24T04:26:22;96099.66;;;12.98;100.00
6514;BME280;3290;47.716;9.070;2023-03-24T04:29:29;96103.22;;;13.13;100.00
6514;BME280;3290;47.716;9.070;2023-03-24T04:32:09;96105.59;;;13.15;100.00
6514;BME280;3290;47.716;9.070;2023-03-24T04:34:41;96116.03;;;13.05;100.00
6514;BME280;3290;47.716;9.070;2023-03-24T04:37:13;96111.53;;;13.05;100.00
6514;BME280;3290;47.716;9.070;2023-03-24T04:39:43;96118.91;;;13.03;100.00
6514;BME280;3290;47.716;9.070;2023-03-24T04:42:14;96133.09;;;13.28;100.00
6514;BME280;3290;47.716;9.070;2023-03-24T04:44:42;96116.34;;;13.39;100.00
6514;BME280;3290;47.716;9.070;2023-03-24T04:47:09;96122.94;;;13.42;100.00
6514;BME280;3290;47.716;9.070;2023-03-24T04:49:37;96142.06;;;13.32;100.00
6514;BME280;3290;47.716;9.070;2023-03-24T04:52:03;96149.03;;;13.48;100.00
6514;BME280;3290;47.716;9.070;2023-03-24T04:54:29;96141.66;;;12.93;100.00
6514;BME280;3290;47.716;9.070;2023-03-24T04:56:57;96169.03;;;12.76;100.00
6514;BME280;3290;47.716;9.070;2023-03-24T04:59:23;96172.97;;;12.94;100.00
6514;BME280;3290;47.716;9.070;2023-03-24T05:01:48;96198.56;;;12.61;100.00
6514;BME280;3290;47.716;9.070;2023-03-24T05:04:18;96194.22;;;12.88;100.00
6514;BME280;3290;47.716;9.070;2023-03-24T05:06:45;96185.94;;;13.01;100.00
6514;BME280;3290;47.716;9.070;2023-03-24T05:09:12;96189.03;;;12.98;100.00
6514;BME280;3290;47.716;9.070;2023-03-24T05:11:38;96201.09;;;12.94;100.00
6514;BME280;3290;47.716;9.070;2023-03-24T05:14:03;96209.59;;;12.58;100.00
6514;BME280;3290;47.716;9.070;2023-03-24T05:16:29;96219.28;;;12.79;100.00
6514;BME280;3290;47.716;9.070;2023-03-24T05:18:54;96198.59;;;13.04;100.00
6514;BME280;3290;47.716;9.070;2023-03-24T05:21:20;96198.09;;;12.64;100.00
6514;BME280;3290;47.716;9.070;2023-03-24T05:23:45;96184.88;;;13.02;100.00
6514;BME280;3290;47.716;9.070;2023-03-24T05:26:11;96174.66;;;13.31;100.00
6514;BME280;3290;47.716;9.070;2023-03-24T05:28:36;96184.47;;;13.36;100.00
6514;BME280;3290;47.716;9.070;2023-03-24T05:31:02;96177.88;;;13.33;100.00
6514;BME280;3290;47.716;9.070;2023-03-24T05:33:27;96186.13;;;13.20;100.00
6514;BME280;3290;47.716;9.070;2023-03-24T05:35:52;96180.22;;;13.35;100.00
6514;BME280;3290;47.716;9.070;2023-03-24T05:38:18;96182.13;;;13.13;100.00
6514;BME280;3290;47.716;9.070;2023-03-24T05:40:43;96184.47;;;12.88;100.00
6514;BME280;3290;47.716;9.070;2023-03-24T05:43:09;96190.19;;;13.07;100.00
6514;BME280;3290;47.716;9.070;2023-03-24T05:45:36;96188.63;;;13.06;100.00
6514;BME280;3290;47.716;9.070;2023-03-24T05:48:02;96198.34;;;13.31;100.00
6514;BME280;3290;47.716;9.070;2023-03-24T05:50:27;96198.50;;;13.46;100.00
6514;BME280;3290;47.716;9.070;2023-03-24T05:52:53;96207.06;;;13.63;100.00
6514;BME280;3290;47.716;9.070;2023-03-24T05:55:18;96211.34;;;13.69;100.00
6514;BME280;3290;47.716;9.070;2023-03-24T05:57:44;96207.03;;;13.58;100.00
6514;BME280;3290;47.716;9.070;2023-03-24T06:00:10;96216.31;;;13.65;100.00
6514;BME280;3290;47.716;9.070;2023-03-24T06:02:40;96212.78;;;13.55;100.00
6514;BME280;3290;47.716;9.070;2023-03-24T06:05:06;96221.22;;;13.57;100.00
6514;BME280;3290;47.716;9.070;2023-03-24T06:07:32;96222.84;;;13.63;100.00
6514;BME280;3290;47.716;9.070;2023-03-24T06:09:58;96216.13;;;13.72;100.00
6514;BME280;3290;47.716;9.070;2023-03-24T06:12:28;96212.91;;;13.70;100.00
6514;BME280;3290;47.716;9.070;2023-03-24T06:14:55;96208.78;;;13.79;100.00
6514;BME280;3290;47.716;9.070;2023-03-24T06:17:21;96198.38;;;13.94;100.00
6514;BME280;3290;47.716;9.070;2023-03-24T06:19:49;96193.84;;;13.89;100.00
6514;BME280;3290;47.716;9.070;2023-03-24T06:22:18;96196.03;;;13.97;100.00
6514;BME280;3290;47.716;9.070;2023-03-24T06:24:44;96200.06;;;14.04;100.00
6514;BME280;3290;47.716;9.070;2023-03-24T06:27:11;96214.31;;;14.08;100.00
6514;BME280;3290;47.716;9.070;2023-03-24T06:29:39;96218.06;;;14.17;100.00
6514;BME280;3290;47.716;9.070;2023-03-24T06:32:07;96211.28;;;14.26;100.00
6514;BME280;3290;47.716;9.070;2023-03-24T06:34:32;96217.09;;;14.28;100.00
6514;BME280;3290;47.716;9.070;2023-03-24T06:36:58;96215.56;;;14.37;100.00
6514;BME280;3290;47.716;9.070;2023-03-24T06:39:23;96226.38;;;14.36;100.00
6514;BME280;3290;47.716;9.070;2023-03-24T06:41:49;96222.88;;;14.25;100.00
6514;BME280;3290;47.716;9.070;2023-03-24T06:44:14;96219.88;;;14.53;100.00
6514;BME280;3290;47.716;9.070;2023-03-24T06:46:40;96213.78;;;14.06;100.00
6514;BME280;3290;47.716;9.070;2023-03-24T06:49:06;96204.78;;;14.39;100.00
6514;BME280;3290;47.716;9.070;2023-03-24T06:51:31;96211.19;;;14.57;100.00
6514;BME280;3290;47.716;9.070;2023-03-24T06:53:57;96211.19;;;14.57;100.00
6514;BME280;3290;47.716;9.070;2023-03-24T06:56:22;96214.69;;;14.68;100.00
6514;BME280;3290;47.716;9.070;2023-03-24T06:58:48;96229.00;;;14.86;100.00
6514;BME280;3290;47.716;9.070;2023-03-24T07:01:13;96238.84;;;15.01;100.00
6514;BME280;3290;47.716;9.070;2023-03-24T07:03:39;96244.78;;;14.77;100.00
6514;BME280;3290;47.716;9.070;2023-03-24T07:06:07;96260.03;;;14.65;100.00
6514;BME280;3290;47.716;9.070;2023-03-24T07:08:34;96275.25;;;14.53;100.00
6514;BME280;3290;47.716;9.070;2023-03-24T07:11:00;96286.84;;;14.21;100.00
6514;BME280;3290;47.716;9.070;2023-03-24T07:13:26;96271.97;;;13.79;100.00
6514;BME280;3290;47.716;9.070;2023-03-24T07:15:52;96292.47;;;13.72;100.00
6514;BME280;3290;47.716;9.070;2023-03-24T07:18:17;96286.00;;;13.58;100.00
6514;BME280;3290;47.716;9.070;2023-03-24T07:20:45;96286.00;;;13.58;100.00
6514;BME280;3290;47.716;9.070;2023-03-24T07:23:11;96294.97;;;13.36;100.00
6514;BME280;3290;47.716;9.070;2023-03-24T07:25:39;96288.94;;;13.93;100.00
6514;BME280;3290;47.716;9.070;2023-03-24T07:28:04;96290.00;;;13.92;100.00
6514;BME280;3290;47.716;9.070;2023-03-24T07:30:30;96287.44;;;13.97;100.00
6514;BME280;3290;47.716;9.070;2023-03-24T07:32:55;96284.78;;;13.97;100.00
6514;BME280;3290;47.716;9.070;2023-03-24T07:35:21;96279.66;;;14.11;100.00
6514;BME280;3290;47.716;9.070;2023-03-24T07:37:46;96281.84;;;14.19;100.00
6514;BME280;3290;47.716;9.070;2023-03-24T07:40:12;96282.69;;;13.99;100.00
6514;BME280;3290;47.716;9.070;2023-03-24T07:42:42;96295.22;;;14.13;100.00
6514;BME280;3290;47.716;9.070;2023-03-24T07:45:09;96303.00;;;14.29;100.00
6514;BME280;3290;47.716;9.070;2023-03-24T07:47:36;96307.16;;;14.20;100.00
6514;BME280;3290;47.716;9.070;2023-03-24T07:50:02;96307.94;;;14.21;100.00
6514;BME280;3290;47.716;9.070;2023-03-24T07:52:30;96314.50;;;14.18;100.00
6514;BME280;3290;47.716;9.070;2023-03-24T07:54:55;96324.00;;;14.19;100.00
6514;BME280;3290;47.716;9.070;2023-03-24T07:57:21;96319.06;;;14.28;100.00
6514;BME280;3290;47.716;9.070;2023-03-24T07:59:47;96332.66;;;14.15;100.00
6514;BME280;3290;47.716;9.070;2023-03-24T08:02:17;96333.41;;;14.10;100.00
6514;BME280;3290;47.716;9.070;2023-03-24T08:04:43;96338.69;;;14.10;100.00
6514;BME280;3290;47.716;9.070;2023-03-24T08:07:09;96344.44;;;14.07;100.00
6514;BME280;3290;47.716;9.070;2023-03-24T08:09:36;96349.25;;;14.15;100.00
6514;BME280;3290;47.716;9.070;2023-03-24T08:12:02;96360.00;;;14.09;100.00
6514;BME280;3290;47.716;9.070;2023-03-24T08:14:27;96353.97;;;14.13;100.00
6514;BME280;3290;47.716;9.070;2023-03-24T08:16:53;96358.69;;;14.11;100.00
6514;BME280;3290;47.716;9.070;2023-03-24T08:19:18;96347.72;;;14.19;100.00
6514;BME280;3290;47.716;9.070;2023-03-24T08:21:43;96346.25;;;14.02;100.00
6514;BME280;3290;47.716;9.070;2023-03-24T08:24:09;96345.09;;;14.19;100.00
6514;BME280;3290;47.716;9.070;2023-03-24T08:26:34;96349.16;;;14.32;100.00
6514;BME280;3290;47.716;9.070;2023-03-24T08:29:00;96354.13;;;14.28;100.00
6514;BME280;3290;47.716;9.070;2023-03-24T08:31:33;96354.56;;;14.20;100.00
6514;BME280;3290;47.716;9.070;2023-03-24T08:33:58;96355.31;;;14.47;100.00
6514;BME280;3290;47.716;9.070;2023-03-24T08:36:24;96364.44;;;14.66;100.00
6514;BME280;3290;47.716;9.070;2023-03-24T08:38:54;96359.84;;;14.51;100.00
6514;BME280;3290;47.716;9.070;2023-03-24T08:41:20;96360.47;;;14.63;100.00
6514;BME280;3290;47.716;9.070;2023-03-24T08:43:47;96365.50;;;14.70;100.00
6514;BME280;3290;47.716;9.070;2023-03-24T08:46:12;96367.41;;;14.74;100.00
6514;BME280;3290;47.716;9.070;2023-03-24T08:48:39;96381.28;;;14.60;100.00
6514;BME280;3290;47.716;9.070;2023-03-24T08:51:12;96385.06;;;14.74;100.00
6514;BME280;3290;47.716;9.070;2023-03-24T08:53:38;96379.56;;;14.80;100.00
6514;BME280;3290;47.716;9.070;2023-03-24T08:56:04;96374.94;;;14.61;100.00
6514;BME280;3290;47.716;9.070;2023-03-24T08:58:30;96378.16;;;14.68;100.00
6514;BME280;3290;47.716;9.070;2023-03-24T09:00:55;96382.97;;;14.76;100.00
6514;BME280;3290;47.716;9.070;2023-03-24T09:03:20;96383.44;;;14.68;100.00
6514;BME280;3290;47.716;9.070;2023-03-24T09:05:46;96384.88;;;14.85;100.00
6514;BME280;3290;47.716;9.070;2023-03-24T09:08:14;96379.81;;;14.79;100.00
6514;BME280;3290;47.716;9.070;2023-03-24T09:10:41;96387.78;;;14.83;100.00
6514;BME280;3290;47.716;9.070;2023-03-24T09:13:07;96385.38;;;14.77;100.00
6514;BME280;3290;47.716;9.070;2023-03-24T09:15:33;96385.09;;;14.79;100.00
6514;BME280;3290;47.716;9.070;2023-03-24T09:17:58;96396.22;;;14.81;100.00
6514;BME280;3290;47.716;9.070;2023-03-24T09:20:24;96388.88;;;14.87;100.00
6514;BME280;3290;47.716;9.070;2023-03-24T09:22:50;96388.91;;;14.97;100.00
6514;BME280;3290;47.716;9.070;2023-03-24T09:25:19;96396.22;;;14.85;100.00
6514;BME280;3290;47.716;9.070;2023-03-24T09:27:44;96386.50;;;14.86;100.00
6514;BME280;3290;47.716;9.070;2023-03-24T09:30:12;96393.25;;;14.72;100.00
6514;BME280;3290;47.716;9.070;2023-03-24T09:32:38;96386.44;;;14.81;100.00
6514;BME280;3290;47.716;9.070;2023-03-24T09:35:04;96390.75;;;14.61;100.00
6514;BME280;3290;47.716;9.070;2023-03-24T09:37:31;96387.97;;;14.72;100.00
6514;BME280;3290;47.716;9.070;2023-03-24T09:39:56;96392.91;;;14.64;100.00
6514;BME280;3290;47.716;9.070;2023-03-24T09:42:26;96393.44;;;14.66;100.00
6514;BME280;3290;47.716;9.070;2023-03-24T09:44:57;96389.28;;;14.75;100.00
6514;BME280;3290;47.716;9.070;2023-03-24T09:47:51;96387.22;;;14.81;100.00
6514;BME280;3290;47.716;9.070;2023-03-24T09:50:26;96383.75;;;14.76;100.00
6514;BME280;3290;47.716;9.070;2023-03-24T09:52:58;96392.59;;;14.91;100.00
6514;BME280;3290;47.716;9.070;2023-03-24T09:55:27;96389.38;;;14.84;100.00
6514;BME280;3290;47.716;9.070;2023-03-24T09:57:57;96371.03;;;14.63;100.00
6514;BME280;3290;47.716;9.070;2023-03-24T10:00:28;96357.25;;;14.25;100.00
6514;BME280;3290;47.716;9.070;2023-03-24T10:03:11;96357.06;;;14.37;100.00
6514;BME280;3290;47.716;9.070;2023-03-24T10:05:41;96348.13;;;14.69;100.00
6514;BME280;3290;47.716;9.070;2023-03-24T10:08:16;96352.81;;;14.62;100.00
6514;BME280;3290;47.716;9.070;2023-03-24T10:10:56;96356.66;;;14.85;100.00
6514;BME280;3290;47.716;9.070;2023-03-24T10:16:33;96365.16;;;14.92;100.00
6514;BME280;3290;47.716;9.070;2023-03-24T10:22:21;96374.09;;;14.55;100.00
6514;BME280;3290;47.716;9.070;2023-03-24T10:27:36;96379.72;;;14.64;100.00
6514;BME280;3290;47.716;9.070;2023-03-24T10:32:45;96394.59;;;14.48;100.00
6514;BME280;3290;47.716;9.070;2023-03-24T10:35:34;96400.09;;;14.42;100.00
6514;BME280;3290;47.716;9.070;2023-03-24T10:38:04;96391.47;;;14.51;100.00
6514;BME280;3290;47.716;9.070;2023-03-24T10:40:33;96396.53;;;14.27;100.00
6514;BME280;3290;47.716;9.070;2023-03-24T10:43:00;96394.84;;;14.42;100.00
6514;BME280;3290;47.716;9.070;2023-03-24T10:45:31;96413.84;;;14.44;100.00
6514;BME280;3290;47.716;9.070;2023-03-24T10:47:59;96412.19;;;14.38;100.00
6514;BME280;3290;47.716;9.070;2023-03-24T10:50:27;96409.97;;;14.25;100.00
6514;BME280;3290;47.716;9.070;2023-03-24T10:52:53;96411.63;;;14.36;100.00
6514;BME280;3290;47.716;9.070;2023-03-24T10:55:21;96403.25;;;14.39;100.00
6514;BME280;3290;47.716;9.070;2023-03-24T10:57:55;96394.59;;;14.80;100.00
6514;BME280;3290;47.716;9.070;2023-03-24T11:00:26;96387.41;;;15.06;100.00
6514;BME280;3290;47.716;9.070;2023-03-24T11:03:03;96402.84;;;14.88;100.00
6514;BME280;3290;47.716;9.070;2023-03-24T11:05:34;96414.28;;;14.98;100.00
6514;BME280;3290;47.716;9.070;2023-03-24T11:10:56;96409.41;;;14.85;100.00
6514;BME280;3290;47.716;9.070;2023-03-24T11:15:55;96399.53;;;14.71;100.00
6514;BME280;3290;47.716;9.070;2023-03-24T11:18:21;96406.28;;;14.52;100.00
6514;BME280;3290;47.716;9.070;2023-03-24T11:20:54;96402.81;;;14.52;100.00
6514;BME280;3290;47.716;9.070;2023-03-24T11:26:21;96409.81;;;14.68;100.00
6514;BME280;3290;47.716;9.070;2023-03-24T11:28:50;96419.88;;;15.07;100.00
6514;BME280;3290;47.716;9.070;2023-03-24T11:31:24;96425.19;;;14.76;100.00
6514;BME280;3290;47.716;9.070;2023-03-24T11:34:02;96419.88;;;14.44;100.00
6514;BME280;3290;47.716;9.070;2023-03-24T11:36:40;96412.78;;;14.45;100.00
6514;BME280;3290;47.716;9.070;2023-03-24T11:42:13;96409.22;;;14.61;100.00
6514;BME280;3290;47.716;9.070;2023-03-24T11:44:48;96398.31;;;14.47;100.00
6514;BME280;3290;47.716;9.070;2023-03-24T11:52:42;96387.19;;;14.77;100.00
6514;BME280;3290;47.716;9.070;2023-03-24T11:58:11;96403.69;;;14.93;100.00
6514;BME280;3290;47.716;9.070;2023-03-24T12:01:05;96408.03;;;14.42;100.00
6514;BME280;3290;47.716;9.070;2023-03-24T12:08:53;96392.75;;;14.18;100.00
6514;BME280;3290;47.716;9.070;2023-03-24T12:17:19;96383.13;;;14.64;100.00
6514;BME280;3290;47.716;9.070;2023-03-24T12:20:07;96379.84;;;14.16;100.00
6514;BME280;3290;47.716;9.070;2023-03-24T12:33:24;96397.63;;;14.04;100.00
6514;BME280;3290;47.716;9.070;2023-03-24T12:44:21;96371.19;;;13.99;100.00
6514;BME280;3290;47.716;9.070;2023-03-24T13:00:24;96353.84;;;13.51;100.00
6514;BME280;3290;47.716;9.070;2023-03-24T13:03:03;96360.38;;;13.27;100.00
6514;BME280;3290;47.716;9.070;2023-03-24T13:05:32;96357.44;;;13.24;100.00
6514;BME280;3290;47.716;9.070;2023-03-24T13:08:02;96363.59;;;13.34;100.00
6514;BME280;3290;47.716;9.070;2023-03-24T13:10:33;96377.63;;;13.61;100.00
6514;BME280;3290;47.716;9.070;2023-03-24T13:13:24;96378.00;;;13.96;100.00
6514;BME280;3290;47.716;9.070;2023-03-24T13:15:53;96375.28;;;14.07;100.00
6514;BME280;3290;47.716;9.070;2023-03-24T13:21:15;96379.38;;;14.24;100.00
6514;BME280;3290;47.716;9.070;2023-03-24T13:29:11;96373.75;;;13.90;100.00
6514;BME280;3290;47.716;9.070;2023-03-24T13:32:10;96367.75;;;13.73;100.00
6514;BME280;3290;47.716;9.070;2023-03-24T13:35:06;96365.53;;;14.07;100.00
6514;BME280;3290;47.716;9.070;2023-03-24T13:40:21;96366.69;;;13.95;100.00
6514;BME280;3290;47.716;9.070;2023-03-24T13:43:12;96366.50;;;13.80;100.00
6514;BME280;3290;47.716;9.070;2023-03-24T13:45:44;96373.03;;;13.73;100.00
6514;BME280;3290;47.716;9.070;2023-03-24T13:50:40;96368.75;;;13.67;100.00
6514;BME280;3290;47.716;9.070;2023-03-24T13:53:13;96369.47;;;13.62;100.00
6514;BME280;3290;47.716;9.070;2023-03-24T13:55:46;96364.50;;;13.66;100.00
6514;BME280;3290;47.716;9.070;2023-03-24T13:58:25;96359.78;;;13.68;100.00
6514;BME280;3290;47.716;9.070;2023-03-24T14:03:41;96371.81;;;13.59;100.00
6514;BME280;3290;47.716;9.070;2023-03-24T14:06:08;96379.22;;;13.62;100.00
6514;BME280;3290;47.716;9.070;2023-03-24T14:09:05;96381.47;;;13.54;100.00
6514;BME280;3290;47.716;9.070;2023-03-24T14:11:45;96387.75;;;13.10;100.00
6514;BME280;3290;47.716;9.070;2023-03-24T14:19:40;96381.09;;;13.24;100.00
6514;BME280;3290;47.716;9.070;2023-03-24T14:22:21;96377.69;;;13.23;100.00
6514;BME280;3290;47.716;9.070;2023-03-24T14:25:16;96378.22;;;13.25;100.00
6514;BME280;3290;47.716;9.070;2023-03-24T14:27:44;96386.19;;;13.30;100.00
6514;BME280;3290;47.716;9.070;2023-03-24T14:30:27;96386.69;;;13.49;100.00
6514;BME280;3290;47.716;9.070;2023-03-24T14:32:59;96394.19;;;13.40;100.00
6514;BME280;3290;47.716;9.070;2023-03-24T14:35:35;96391.94;;;13.49;100.00
6514;BME280;3290;47.716;9.070;2023-03-24T14:40:46;96395.41;;;13.49;100.00
6514;BME280;3290;47.716;9.070;2023-03-24T14:43:25;96383.44;;;13.63;100.00
6514;BME280;3290;47.716;9.070;2023-03-24T14:48:35;96380.44;;;13.76;100.00
6514;BME280;3290;47.716;9.070;2023-03-24T14:54:01;96372.28;;;14.25;100.00
6514;BME280;3290;47.716;9.070;2023-03-24T14:56:33;96373.56;;;14.22;100.00
6514;BME280;3290;47.716;9.070;2023-03-24T14:59:04;96385.19;;;13.79;100.00
6514;BME280;3290;47.716;9.070;2023-03-24T15:01:34;96394.69;;;13.80;100.00
6514;BME280;3290;47.716;9.070;2023-03-24T15:04:01;96395.88;;;13.67;100.00
6514;BME280;3290;47.716;9.070;2023-03-24T15:06:30;96391.63;;;13.88;100.00
6514;BME280;3290;47.716;9.070;2023-03-24T15:08:57;96394.16;;;13.57;100.00
6514;BME280;3290;47.716;9.070;2023-03-24T15:13:55;96382.78;;;13.51;100.00
6514;BME280;3290;47.716;9.070;2023-03-24T15:16:29;96379.81;;;13.69;100.00
6514;BME280;3290;47.716;9.070;2023-03-24T15:18:57;96375.50;;;13.58;100.00
6514;BME280;3290;47.716;9.070;2023-03-24T15:21:25;96383.06;;;13.76;100.00
6514;BME280;3290;47.716;9.070;2023-03-24T15:23:51;96383.97;;;13.44;100.00
6514;BME280;3290;47.716;9.070;2023-03-24T15:26:19;96383.97;;;13.22;100.00
6514;BME280;3290;47.716;9.070;2023-03-24T15:28:53;96402.69;;;13.42;100.00
6514;BME280;3290;47.716;9.070;2023-03-24T15:31:18;96389.78;;;13.24;100.00
6514;BME280;3290;47.716;9.070;2023-03-24T15:33:47;96408.00;;;13.10;100.00
6514;BME280;3290;47.716;9.070;2023-03-24T15:36:19;96412.72;;;13.08;100.00
6514;BME280;3290;47.716;9.070;2023-03-24T15:38:48;96402.22;;;12.91;100.00
6514;BME280;3290;47.716;9.070;2023-03-24T15:41:17;96401.50;;;12.96;100.00
6514;BME280;3290;47.716;9.070;2023-03-24T15:43:51;96403.97;;;12.86;100.00
6514;BME280;3290;47.716;9.070;2023-03-24T15:46:29;96409.47;;;12.84;100.00
6514;BME280;3290;47.716;9.070;2023-03-24T15:48:57;96397.50;;;12.61;100.00
6514;BME280;3290;47.716;9.070;2023-03-24T15:51:54;96402.97;;;12.76;100.00
6514;BME280;3290;47.716;9.070;2023-03-24T15:54:30;96420.19;;;12.50;100.00
6514;BME280;3290;47.716;9.070;2023-03-24T15:57:23;96416.00;;;12.49;100.00
6514;BME280;3290;47.716;9.070;2023-03-24T16:02:28;96417.38;;;12.24;100.00
6514;BME280;3290;47.716;9.070;2023-03-24T16:04:58;96422.16;;;12.11;100.00